sensor_id;sensor_type;location;lat;lon;timestamp;P1;durP1;ratioP1;P2;durP2;ratioP2
30149;SDS011;16962;48.646;9.026;2022-09-30T00:01:25;44.72;;;24.00;;
30149;SDS011;16962;48.646;9.026;2022-09-30T00:04:16;49.20;;;23.30;;
30149;SDS011;16962;48.646;9.026;2022-09-30T00:07:10;41.67;;;23.90;;
30149;SDS011;16962;48.646;9.026;2022-09-30T00:09:57;42.38;;;24.10;;
30149;SDS011;16962;48.646;9.026;2022-09-30T00:12:44;46.17;;;23.70;;
30149;SDS011;16962;48.646;9.026;2022-09-30T00:15:32;48.60;;;25.13;;
30149;SDS011;16962;48.646;9.026;2022-09-30T00:18:19;38.40;;;23.08;;
30149;SDS011;16962;48.646;9.026;2022-09-30T00:21:07;43.50;;;23.88;;
30149;SDS011;16962;48.646;9.026;2022-09-30T00:23:55;38.55;;;23.50;;
30149;SDS011;16962;48.646;9.026;2022-09-30T00:26:44;46.08;;;25.98;;
30149;SDS011;16962;48.646;9.026;2022-09-30T00:29:34;38.42;;;23.65;;
30149;SDS011;16962;48.646;9.026;2022-09-30T00:32:24;39.38;;;23.70;;
30149;SDS011;16962;48.646;9.026;2022-09-30T00:35:11;40.88;;;23.15;;
30149;SDS011;16962;48.646;9.026;2022-09-30T00:37:58;41.72;;;23.58;;
30149;SDS011;16962;48.646;9.026;2022-09-30T00:40:45;35.25;;;23.17;;
30149;SDS011;16962;48.646;9.026;2022-09-30T00:43:42;44.13;;;23.75;;
30149;SDS011;16962;48.646;9.026;2022-09-30T00:46:38;40.92;;;22.83;;
30149;SDS011;16962;48.646;9.026;2022-09-30T00:49:30;48.08;;;25.58;;
30149;SDS011;16962;48.646;9.026;2022-09-30T00:52:20;48.03;;;25.52;;
30149;SDS011;16962;48.646;9.026;2022-09-30T00:55:08;38.80;;;24.40;;
30149;SDS011;16962;48.646;9.026;2022-09-30T00:58:20;45.10;;;24.65;;
30149;SDS011;16962;48.646;9.026;2022-09-30T01:01:15;40.85;;;24.75;;
30149;SDS011;16962;48.646;9.026;2022-09-30T01:04:16;40.30;;;22.77;;
30149;SDS011;16962;48.646;9.026;2022-09-30T01:07:08;42.97;;;25.63;;
30149;SDS011;16962;48.646;9.026;2022-09-30T01:09:59;43.97;;;23.80;;
30149;SDS011;16962;48.646;9.026;2022-09-30T01:12:47;51.10;;;26.25;;
30149;SDS011;16962;48.646;9.026;2022-09-30T01:15:51;41.95;;;25.05;;
30149;SDS011;16962;48.646;9.026;2022-09-30T01:19:04;41.22;;;26.50;;
30149;SDS011;16962;48.646;9.026;2022-09-30T01:25:31;42.22;;;24.73;;
30149;SDS011;16962;48.646;9.026;2022-09-30T01:31:54;41.58;;;22.17;;
30149;SDS011;16962;48.646;9.026;2022-09-30T01:41:06;33.95;;;20.73;;
30149;SDS011;16962;48.646;9.026;2022-09-30T01:44:01;40.10;;;20.05;;
30149;SDS011;16962;48.646;9.026;2022-09-30T01:47:15;37.65;;;21.35;;
30149;SDS011;16962;48.646;9.026;2022-09-30T01:50:17;32.80;;;21.25;;
30149;SDS011;16962;48.646;9.026;2022-09-30T01:53:08;36.47;;;20.13;;
30149;SDS011;16962;48.646;9.026;2022-09-30T01:56:15;34.42;;;20.83;;
30149;SDS011;16962;48.646;9.026;2022-09-30T01:59:15;34.13;;;21.30;;
30149;SDS011;16962;48.646;9.026;2022-09-30T02:02:12;36.17;;;20.60;;
30149;SDS011;16962;48.646;9.026;2022-09-30T02:05:14;36.05;;;20.77;;
30149;SDS011;16962;48.646;9.026;2022-09-30T02:08:18;29.60;;;20.27;;
30149;SDS011;16962;48.646;9.026;2022-09-30T02:11:21;33.20;;;20.83;;
30149;SDS011;16962;48.646;9.026;2022-09-30T02:20:06;33.50;;;21.45;;
30149;SDS011;16962;48.646;9.026;2022-09-30T02:23:14;32.97;;;21.58;;
30149;SDS011;16962;48.646;9.026;2022-09-30T02:26:20;34.00;;;21.23;;
30149;SDS011;16962;48.646;9.026;2022-09-30T02:29:14;32.65;;;20.08;;
30149;SDS011;16962;48.646;9.026;2022-09-30T02:32:14;31.20;;;19.60;;
30149;SDS011;16962;48.646;9.026;2022-09-30T02:35:13;38.97;;;20.98;;
30149;SDS011;16962;48.646;9.026;2022-09-30T02:38:20;28.33;;;18.42;;
30149;SDS011;16962;48.646;9.026;2022-09-30T02:41:17;30.50;;;18.50;;
30149;SDS011;16962;48.646;9.026;2022-09-30T02:44:09;30.02;;;17.95;;
30149;SDS011;16962;48.646;9.026;2022-09-30T02:47:10;37.92;;;17.65;;
30149;SDS011;16962;48.646;9.026;2022-09-30T02:53:30;28.85;;;16.65;;
30149;SDS011;16962;48.646;9.026;2022-09-30T02:56:45;28.38;;;17.50;;
30149;SDS011;16962;48.646;9.026;2022-09-30T02:59:40;33.05;;;19.95;;
30149;SDS011;16962;48.646;9.026;2022-09-30T03:02:30;36.70;;;20.23;;
30149;SDS011;16962;48.646;9.026;2022-09-30T03:05:17;36.13;;;20.30;;
30149;SDS011;16962;48.646;9.026;2022-09-30T03:08:05;29.42;;;18.40;;
30149;SDS011;16962;48.646;9.026;2022-09-30T03:10:52;30.13;;;18.75;;
30149;SDS011;16962;48.646;9.026;2022-09-30T03:22:38;42.25;;;23.50;;
30149;SDS011;16962;48.646;9.026;2022-09-30T03:28:32;41.88;;;23.77;;
30149;SDS011;16962;48.646;9.026;2022-09-30T03:31:37;39.47;;;23.38;;
30149;SDS011;16962;48.646;9.026;2022-09-30T03:37:48;53.88;;;29.30;;
30149;SDS011;16962;48.646;9.026;2022-09-30T03:44:14;50.53;;;26.52;;
30149;SDS011;16962;48.646;9.026;2022-09-30T03:47:08;48.53;;;27.40;;
30149;SDS011;16962;48.646;9.026;2022-09-30T03:50:01;33.50;;;19.98;;
30149;SDS011;16962;48.646;9.026;2022-09-30T03:52:52;55.58;;;27.85;;
30149;SDS011;16962;48.646;9.026;2022-09-30T03:55:49;50.33;;;27.35;;
30149;SDS011;16962;48.646;9.026;2022-09-30T03:58:40;48.65;;;26.35;;
30149;SDS011;16962;48.646;9.026;2022-09-30T04:01:29;50.60;;;26.95;;
30149;SDS011;16962;48.646;9.026;2022-09-30T04:04:16;61.88;;;30.02;;
30149;SDS011;16962;48.646;9.026;2022-09-30T04:07:05;56.97;;;30.23;;
30149;SDS011;16962;48.646;9.026;2022-09-30T04:09:54;67.63;;;32.15;;
30149;SDS011;16962;48.646;9.026;2022-09-30T04:12:42;65.53;;;32.90;;
30149;SDS011;16962;48.646;9.026;2022-09-30T04:15:29;67.20;;;31.67;;
30149;SDS011;16962;48.646;9.026;2022-09-30T04:18:19;55.92;;;31.00;;
30149;SDS011;16962;48.646;9.026;2022-09-30T04:21:10;62.10;;;30.48;;
30149;SDS011;16962;48.646;9.026;2022-09-30T04:23:59;53.38;;;25.77;;
30149;SDS011;16962;48.646;9.026;2022-09-30T04:26:48;50.72;;;25.52;;
30149;SDS011;16962;48.646;9.026;2022-09-30T04:29:40;44.17;;;25.00;;
30149;SDS011;16962;48.646;9.026;2022-09-30T04:32:27;43.00;;;24.65;;
30149;SDS011;16962;48.646;9.026;2022-09-30T04:35:17;45.00;;;25.05;;
30149;SDS011;16962;48.646;9.026;2022-09-30T04:38:09;48.58;;;25.83;;
30149;SDS011;16962;48.646;9.026;2022-09-30T04:40:56;53.25;;;26.95;;
30149;SDS011;16962;48.646;9.026;2022-09-30T04:43:44;47.22;;;26.23;;
30149;SDS011;16962;48.646;9.026;2022-09-30T04:46:32;51.90;;;27.83;;
30149;SDS011;16962;48.646;9.026;2022-09-30T04:49:23;50.97;;;28.02;;
30149;SDS011;16962;48.646;9.026;2022-09-30T04:52:10;55.05;;;28.40;;
30149;SDS011;16962;48.646;9.026;2022-09-30T04:54:57;52.83;;;27.50;;
30149;SDS011;16962;48.646;9.026;2022-09-30T04:57:44;51.15;;;28.00;;
30149;SDS011;16962;48.646;9.026;2022-09-30T05:00:32;54.05;;;29.23;;
30149;SDS011;16962;48.646;9.026;2022-09-30T05:03:19;48.55;;;27.85;;
30149;SDS011;16962;48.646;9.026;2022-09-30T05:06:06;61.65;;;27.60;;
30149;SDS011;16962;48.646;9.026;2022-09-30T05:08:54;44.42;;;25.60;;
30149;SDS011;16962;48.646;9.026;2022-09-30T05:11:41;51.22;;;25.52;;
30149;SDS011;16962;48.646;9.026;2022-09-30T05:14:30;47.40;;;26.60;;
30149;SDS011;16962;48.646;9.026;2022-09-30T05:17:21;52.53;;;27.38;;
30149;SDS011;16962;48.646;9.026;2022-09-30T05:20:08;45.65;;;24.98;;
30149;SDS011;16962;48.646;9.026;2022-09-30T05:22:56;52.40;;;26.40;;
30149;SDS011;16962;48.646;9.026;2022-09-30T05:25:45;65.65;;;29.80;;
30149;SDS011;16962;48.646;9.026;2022-09-30T05:28:33;56.28;;;31.20;;
30149;SDS011;16962;48.646;9.026;2022-09-30T05:31:20;60.78;;;32.72;;
30149;SDS011;16962;48.646;9.026;2022-09-30T05:34:07;50.40;;;29.13;;
30149;SDS011;16962;48.646;9.026;2022-09-30T05:36:57;53.47;;;28.55;;
30149;SDS011;16962;48.646;9.026;2022-09-30T05:39:44;56.63;;;29.40;;
30149;SDS011;16962;48.646;9.026;2022-09-30T05:42:31;58.97;;;28.55;;
30149;SDS011;16962;48.646;9.026;2022-09-30T05:45:21;62.15;;;31.20;;
30149;SDS011;16962;48.646;9.026;2022-09-30T05:48:09;68.75;;;30.70;;
30149;SDS011;16962;48.646;9.026;2022-09-30T05:50:57;70.60;;;30.63;;
30149;SDS011;16962;48.646;9.026;2022-09-30T05:53:49;70.03;;;31.58;;
30149;SDS011;16962;48.646;9.026;2022-09-30T05:56:37;60.67;;;29.25;;
30149;SDS011;16962;48.646;9.026;2022-09-30T05:59:25;65.45;;;30.35;;
30149;SDS011;16962;48.646;9.026;2022-09-30T06:02:14;61.10;;;30.02;;
30149;SDS011;16962;48.646;9.026;2022-09-30T06:05:04;61.40;;;32.88;;
30149;SDS011;16962;48.646;9.026;2022-09-30T06:07:52;67.05;;;33.13;;
30149;SDS011;16962;48.646;9.026;2022-09-30T06:10:41;48.05;;;26.02;;
30149;SDS011;16962;48.646;9.026;2022-09-30T06:13:29;45.50;;;24.58;;
30149;SDS011;16962;48.646;9.026;2022-09-30T06:16:17;46.00;;;24.83;;
30149;SDS011;16962;48.646;9.026;2022-09-30T06:19:07;43.38;;;23.90;;
30149;SDS011;16962;48.646;9.026;2022-09-30T06:21:55;47.28;;;24.95;;
30149;SDS011;16962;48.646;9.026;2022-09-30T06:24:43;50.05;;;28.00;;
30149;SDS011;16962;48.646;9.026;2022-09-30T06:27:34;45.45;;;27.25;;
30149;SDS011;16962;48.646;9.026;2022-09-30T06:33:13;48.45;;;27.20;;
30149;SDS011;16962;48.646;9.026;2022-09-30T06:36:03;42.75;;;26.15;;
30149;SDS011;16962;48.646;9.026;2022-09-30T06:38:51;46.25;;;25.50;;
30149;SDS011;16962;48.646;9.026;2022-09-30T06:41:39;48.17;;;23.02;;
30149;SDS011;16962;48.646;9.026;2022-09-30T06:44:29;40.22;;;22.98;;
30149;SDS011;16962;48.646;9.026;2022-09-30T06:47:17;31.27;;;20.20;;
30149;SDS011;16962;48.646;9.026;2022-09-30T06:50:11;28.67;;;19.50;;
30149;SDS011;16962;48.646;9.026;2022-09-30T06:53:11;26.42;;;17.40;;
30149;SDS011;16962;48.646;9.026;2022-09-30T06:55:58;27.35;;;17.20;;
30149;SDS011;16962;48.646;9.026;2022-09-30T06:58:46;18.98;;;14.15;;
30149;SDS011;16962;48.646;9.026;2022-09-30T07:01:33;21.40;;;13.60;;
30149;SDS011;16962;48.646;9.026;2022-09-30T07:04:20;18.65;;;12.63;;
30149;SDS011;16962;48.646;9.026;2022-09-30T07:07:10;21.15;;;13.77;;
30149;SDS011;16962;48.646;9.026;2022-09-30T07:09:58;21.20;;;13.00;;
30149;SDS011;16962;48.646;9.026;2022-09-30T07:12:48;25.33;;;14.75;;
30149;SDS011;16962;48.646;9.026;2022-09-30T07:15:36;29.05;;;16.70;;
30149;SDS011;16962;48.646;9.026;2022-09-30T07:18:24;26.75;;;17.00;;
30149;SDS011;16962;48.646;9.026;2022-09-30T07:21:17;25.60;;;16.83;;
30149;SDS011;16962;48.646;9.026;2022-09-30T07:24:11;22.92;;;15.88;;
30149;SDS011;16962;48.646;9.026;2022-09-30T07:26:59;30.33;;;17.90;;
30149;SDS011;16962;48.646;9.026;2022-09-30T07:29:46;25.98;;;15.50;;
30149;SDS011;16962;48.646;9.026;2022-09-30T07:32:54;25.05;;;14.13;;
30149;SDS011;16962;48.646;9.026;2022-09-30T07:35:48;19.35;;;13.60;;
30149;SDS011;16962;48.646;9.026;2022-09-30T07:38:39;26.55;;;14.65;;
30149;SDS011;16962;48.646;9.026;2022-09-30T07:41:30;17.85;;;12.55;;
30149;SDS011;16962;48.646;9.026;2022-09-30T07:44:17;18.02;;;12.93;;
30149;SDS011;16962;48.646;9.026;2022-09-30T07:47:06;25.48;;;12.57;;
30149;SDS011;16962;48.646;9.026;2022-09-30T07:49:55;17.73;;;11.77;;
30149;SDS011;16962;48.646;9.026;2022-09-30T07:52:42;20.85;;;12.00;;
30149;SDS011;16962;48.646;9.026;2022-09-30T07:55:31;22.80;;;11.45;;
30149;SDS011;16962;48.646;9.026;2022-09-30T07:58:20;16.25;;;11.15;;
30149;SDS011;16962;48.646;9.026;2022-09-30T08:01:09;16.02;;;12.10;;
30149;SDS011;16962;48.646;9.026;2022-09-30T08:04:03;21.95;;;11.93;;
30149;SDS011;16962;48.646;9.026;2022-09-30T08:06:56;20.05;;;10.85;;
30149;SDS011;16962;48.646;9.026;2022-09-30T08:09:47;19.23;;;13.38;;
30149;SDS011;16962;48.646;9.026;2022-09-30T08:12:36;20.20;;;13.00;;
30149;SDS011;16962;48.646;9.026;2022-09-30T08:15:25;21.73;;;12.13;;
30149;SDS011;16962;48.646;9.026;2022-09-30T08:18:12;18.08;;;10.98;;
30149;SDS011;16962;48.646;9.026;2022-09-30T08:21:05;22.27;;;14.52;;
30149;SDS011;16962;48.646;9.026;2022-09-30T08:23:56;25.55;;;14.68;;
30149;SDS011;16962;48.646;9.026;2022-09-30T08:26:44;22.85;;;13.85;;
30149;SDS011;16962;48.646;9.026;2022-09-30T08:29:32;26.30;;;15.15;;
30149;SDS011;16962;48.646;9.026;2022-09-30T08:32:40;18.60;;;12.55;;
30149;SDS011;16962;48.646;9.026;2022-09-30T08:35:27;22.45;;;13.30;;
30149;SDS011;16962;48.646;9.026;2022-09-30T08:38:15;20.65;;;12.07;;
30149;SDS011;16962;48.646;9.026;2022-09-30T08:41:22;14.68;;;10.63;;
30149;SDS011;16962;48.646;9.026;2022-09-30T08:50:34;16.90;;;10.43;;
30149;SDS011;16962;48.646;9.026;2022-09-30T08:53:53;17.90;;;10.15;;
30149;SDS011;16962;48.646;9.026;2022-09-30T08:56:45;13.35;;;9.30;;
30149;SDS011;16962;48.646;9.026;2022-09-30T08:59:37;14.48;;;8.90;;
30149;SDS011;16962;48.646;9.026;2022-09-30T09:02:33;13.65;;;8.45;;
30149;SDS011;16962;48.646;9.026;2022-09-30T09:05:46;16.15;;;8.13;;
30149;SDS011;16962;48.646;9.026;2022-09-30T09:08:49;11.63;;;7.38;;
30149;SDS011;16962;48.646;9.026;2022-09-30T09:14:46;9.85;;;6.82;;
30149;SDS011;16962;48.646;9.026;2022-09-30T09:24:02;8.30;;;6.15;;
30149;SDS011;16962;48.646;9.026;2022-09-30T09:26:55;6.70;;;5.28;;
30149;SDS011;16962;48.646;9.026;2022-09-30T09:33:01;12.77;;;6.20;;
30149;SDS011;16962;48.646;9.026;2022-09-30T09:39:06;14.27;;;6.30;;
30149;SDS011;16962;48.646;9.026;2022-09-30T09:48:12;8.18;;;5.68;;
30149;SDS011;16962;48.646;9.026;2022-09-30T09:54:05;6.15;;;4.07;;
30149;SDS011;16962;48.646;9.026;2022-09-30T09:57:04;6.80;;;2.83;;
30149;SDS011;16962;48.646;9.026;2022-09-30T10:06:08;7.47;;;4.65;;
30149;SDS011;16962;48.646;9.026;2022-09-30T10:08:56;4.55;;;3.38;;
30149;SDS011;16962;48.646;9.026;2022-09-30T10:11:46;6.50;;;3.70;;
30149;SDS011;16962;48.646;9.026;2022-09-30T10:14:47;6.38;;;3.13;;
30149;SDS011;16962;48.646;9.026;2022-09-30T10:17:34;11.32;;;3.15;;
30149;SDS011;16962;48.646;9.026;2022-09-30T10:20:25;5.40;;;3.30;;
30149;SDS011;16962;48.646;9.026;2022-09-30T10:23:28;5.53;;;3.40;;
30149;SDS011;16962;48.646;9.026;2022-09-30T10:26:23;5.70;;;3.35;;
30149;SDS011;16962;48.646;9.026;2022-09-30T10:32:15;6.90;;;3.92;;
30149;SDS011;16962;48.646;9.026;2022-09-30T10:35:03;7.68;;;4.22;;
30149;SDS011;16962;48.646;9.026;2022-09-30T10:38:04;6.25;;;3.70;;
30149;SDS011;16962;48.646;9.026;2022-09-30T10:40:51;8.00;;;3.92;;
30149;SDS011;16962;48.646;9.026;2022-09-30T10:43:43;7.28;;;3.88;;
30149;SDS011;16962;48.646;9.026;2022-09-30T10:46:36;6.47;;;4.07;;
30149;SDS011;16962;48.646;9.026;2022-09-30T10:56:03;5.10;;;2.30;;
30149;SDS011;16962;48.646;9.026;2022-09-30T10:58:52;6.53;;;2.50;;
30149;SDS011;16962;48.646;9.026;2022-09-30T11:01:44;3.95;;;2.28;;
30149;SDS011;16962;48.646;9.026;2022-09-30T11:04:49;4.80;;;2.50;;
30149;SDS011;16962;48.646;9.026;2022-09-30T11:11:17;5.50;;;2.50;;
30149;SDS011;16962;48.646;9.026;2022-09-30T11:14:18;5.72;;;2.78;;
30149;SDS011;16962;48.646;9.026;2022-09-30T11:17:27;4.03;;;2.30;;
30149;SDS011;16962;48.646;9.026;2022-09-30T11:20:27;4.38;;;2.42;;
30149;SDS011;16962;48.646;9.026;2022-09-30T11:23:43;3.83;;;2.70;;
30149;SDS011;16962;48.646;9.026;2022-09-30T11:40:36;3.30;;;2.75;;
30149;SDS011;16962;48.646;9.026;2022-09-30T11:53:01;4.60;;;2.78;;
30149;SDS011;16962;48.646;9.026;2022-09-30T11:59:05;4.40;;;3.28;;
30149;SDS011;16962;48.646;9.026;2022-09-30T12:02:05;4.13;;;3.17;;
30149;SDS011;16962;48.646;9.026;2022-09-30T12:05:31;6.90;;;3.70;;
30149;SDS011;16962;48.646;9.026;2022-09-30T12:08:34;6.53;;;3.35;;
30149;SDS011;16962;48.646;9.026;2022-09-30T12:11:31;4.57;;;2.70;;
30149;SDS011;16962;48.646;9.026;2022-09-30T12:14:38;7.63;;;2.85;;
30149;SDS011;16962;48.646;9.026;2022-09-30T12:17:37;11.35;;;3.70;;
30149;SDS011;16962;48.646;9.026;2022-09-30T12:20:29;4.50;;;3.20;;
30149;SDS011;16962;48.646;9.026;2022-09-30T12:23:26;4.03;;;2.90;;
30149;SDS011;16962;48.646;9.026;2022-09-30T12:26:20;4.70;;;2.97;;
30149;SDS011;16962;48.646;9.026;2022-09-30T12:35:32;5.65;;;2.28;;
30149;SDS011;16962;48.646;9.026;2022-09-30T12:38:52;4.90;;;2.42;;
30149;SDS011;16962;48.646;9.026;2022-09-30T12:47:43;3.03;;;2.33;;
30149;SDS011;16962;48.646;9.026;2022-09-30T12:50:39;4.13;;;2.10;;
30149;SDS011;16962;48.646;9.026;2022-09-30T12:53:43;5.32;;;2.17;;
30149;SDS011;16962;48.646;9.026;2022-09-30T12:56:37;4.15;;;2.30;;
30149;SDS011;16962;48.646;9.026;2022-09-30T13:03:16;2.92;;;1.70;;
30149;SDS011;16962;48.646;9.026;2022-09-30T13:06:04;4.22;;;2.40;;
30149;SDS011;16962;48.646;9.026;2022-09-30T13:09:16;2.70;;;1.70;;
30149;SDS011;16962;48.646;9.026;2022-09-30T13:12:14;3.55;;;1.75;;
30149;SDS011;16962;48.646;9.026;2022-09-30T13:23:55;4.45;;;1.73;;
30149;SDS011;16962;48.646;9.026;2022-09-30T13:26:43;3.90;;;1.85;;
30149;SDS011;16962;48.646;9.026;2022-09-30T13:29:35;2.40;;;1.30;;
30149;SDS011;16962;48.646;9.026;2022-09-30T13:32:33;1.48;;;1.10;;
30149;SDS011;16962;48.646;9.026;2022-09-30T13:38:33;2.42;;;1.05;;
30149;SDS011;16962;48.646;9.026;2022-09-30T13:41:23;2.38;;;0.88;;
30149;SDS011;16962;48.646;9.026;2022-09-30T13:44:13;2.28;;;1.30;;
30149;SDS011;16962;48.646;9.026;2022-09-30T13:47:14;1.33;;;1.00;;
30149;SDS011;16962;48.646;9.026;2022-09-30T13:53:06;1.27;;;0.80;;
30149;SDS011;16962;48.646;9.026;2022-09-30T13:56:06;2.08;;;0.90;;
30149;SDS011;16962;48.646;9.026;2022-09-30T13:59:10;1.90;;;0.70;;
30149;SDS011;16962;48.646;9.026;2022-09-30T14:02:07;3.40;;;0.95;;
30149;SDS011;16962;48.646;9.026;2022-09-30T14:08:39;3.83;;;0.98;;
30149;SDS011;16962;48.646;9.026;2022-09-30T14:15:06;3.17;;;1.02;;
30149;SDS011;16962;48.646;9.026;2022-09-30T14:21:43;2.60;;;1.20;;
30149;SDS011;16962;48.646;9.026;2022-09-30T14:24:28;2.53;;;1.30;;
30149;SDS011;16962;48.646;9.026;2022-09-30T14:27:35;2.58;;;1.50;;
30149;SDS011;16962;48.646;9.026;2022-09-30T14:30:32;1.73;;;1.30;;
30149;SDS011;16962;48.646;9.026;2022-09-30T14:33:27;2.20;;;1.20;;
30149;SDS011;16962;48.646;9.026;2022-09-30T14:36:17;2.33;;;1.38;;
30149;SDS011;16962;48.646;9.026;2022-09-30T14:39:10;2.53;;;1.30;;
30149;SDS011;16962;48.646;9.026;2022-09-30T14:42:15;2.03;;;1.20;;
30149;SDS011;16962;48.646;9.026;2022-09-30T14:45:26;4.15;;;1.45;;
30149;SDS011;16962;48.646;9.026;2022-09-30T14:48:25;2.40;;;1.00;;
30149;SDS011;16962;48.646;9.026;2022-09-30T14:51:17;2.42;;;1.42;;
30149;SDS011;16962;48.646;9.026;2022-09-30T14:54:22;2.33;;;1.13;;
30149;SDS011;16962;48.646;9.026;2022-09-30T14:57:15;5.63;;;1.20;;
30149;SDS011;16962;48.646;9.026;2022-09-30T15:00:19;1.45;;;1.20;;
30149;SDS011;16962;48.646;9.026;2022-09-30T15:03:10;3.03;;;1.50;;
30149;SDS011;16962;48.646;9.026;2022-09-30T15:06:18;2.22;;;1.40;;
30149;SDS011;16962;48.646;9.026;2022-09-30T15:09:15;2.95;;;1.40;;
30149;SDS011;16962;48.646;9.026;2022-09-30T15:12:11;2.03;;;1.30;;
30149;SDS011;16962;48.646;9.026;2022-09-30T15:14:59;2.28;;;1.50;;
30149;SDS011;16962;48.646;9.026;2022-09-30T15:17:47;1.58;;;1.10;;
30149;SDS011;16962;48.646;9.026;2022-09-30T15:20:38;1.92;;;1.20;;
30149;SDS011;16962;48.646;9.026;2022-09-30T15:23:30;2.67;;;1.00;;
30149;SDS011;16962;48.646;9.026;2022-09-30T15:26:20;2.33;;;1.17;;
30149;SDS011;16962;48.646;9.026;2022-09-30T15:29:11;1.42;;;1.00;;
30149;SDS011;16962;48.646;9.026;2022-09-30T15:32:19;1.58;;;0.98;;
30149;SDS011;16962;48.646;9.026;2022-09-30T15:35:15;1.63;;;0.80;;
30149;SDS011;16962;48.646;9.026;2022-09-30T15:38:07;1.65;;;1.00;;
30149;SDS011;16962;48.646;9.026;2022-09-30T15:41:05;2.92;;;0.90;;
30149;SDS011;16962;48.646;9.026;2022-09-30T15:43:54;0.85;;;0.80;;
30149;SDS011;16962;48.646;9.026;2022-09-30T15:50:13;4.50;;;1.20;;
30149;SDS011;16962;48.646;9.026;2022-09-30T15:59:21;1.52;;;1.20;;
30149;SDS011;16962;48.646;9.026;2022-09-30T16:02:09;4.10;;;1.40;;
30149;SDS011;16962;48.646;9.026;2022-09-30T16:05:01;6.90;;;2.00;;
30149;SDS011;16962;48.646;9.026;2022-09-30T16:07:48;2.13;;;1.35;;
30149;SDS011;16962;48.646;9.026;2022-09-30T16:10:37;2.33;;;1.13;;
30149;SDS011;16962;48.646;9.026;2022-09-30T16:13:28;1.80;;;1.20;;
30149;SDS011;16962;48.646;9.026;2022-09-30T16:16:17;2.03;;;1.30;;
30149;SDS011;16962;48.646;9.026;2022-09-30T16:19:13;2.30;;;1.35;;
30149;SDS011;16962;48.646;9.026;2022-09-30T16:22:03;3.58;;;1.40;;
30149;SDS011;16962;48.646;9.026;2022-09-30T16:24:57;2.85;;;1.30;;
30149;SDS011;16962;48.646;9.026;2022-09-30T16:27:53;1.25;;;0.90;;
30149;SDS011;16962;48.646;9.026;2022-09-30T16:30:49;2.95;;;1.10;;
30149;SDS011;16962;48.646;9.026;2022-09-30T16:33:40;1.25;;;1.10;;
30149;SDS011;16962;48.646;9.026;2022-09-30T16:36:29;1.92;;;1.23;;
30149;SDS011;16962;48.646;9.026;2022-09-30T16:39:20;1.45;;;1.20;;
30149;SDS011;16962;48.646;9.026;2022-09-30T16:42:13;3.72;;;1.70;;
30149;SDS011;16962;48.646;9.026;2022-09-30T16:45:03;3.20;;;1.90;;
30149;SDS011;16962;48.646;9.026;2022-09-30T16:47:52;5.25;;;2.17;;
30149;SDS011;16962;48.646;9.026;2022-09-30T16:53:35;3.83;;;2.10;;
30149;SDS011;16962;48.646;9.026;2022-09-30T16:56:23;6.53;;;3.00;;
30149;SDS011;16962;48.646;9.026;2022-09-30T16:59:12;4.47;;;2.50;;
30149;SDS011;16962;48.646;9.026;2022-09-30T17:02:03;6.95;;;2.85;;
30149;SDS011;16962;48.646;9.026;2022-09-30T17:04:51;5.88;;;2.40;;
30149;SDS011;16962;48.646;9.026;2022-09-30T17:07:38;3.72;;;2.50;;
30149;SDS011;16962;48.646;9.026;2022-09-30T17:10:29;6.15;;;2.70;;
30149;SDS011;16962;48.646;9.026;2022-09-30T17:13:17;9.48;;;2.83;;
30149;SDS011;16962;48.646;9.026;2022-09-30T17:16:09;5.68;;;2.60;;
30149;SDS011;16962;48.646;9.026;2022-09-30T17:18:57;5.75;;;2.30;;
30149;SDS011;16962;48.646;9.026;2022-09-30T17:21:44;7.35;;;2.60;;
30149;SDS011;16962;48.646;9.026;2022-09-30T17:24:31;5.07;;;3.08;;
30149;SDS011;16962;48.646;9.026;2022-09-30T17:27:21;4.97;;;2.67;;
30149;SDS011;16962;48.646;9.026;2022-09-30T17:30:16;7.13;;;4.70;;
30149;SDS011;16962;48.646;9.026;2022-09-30T17:33:04;9.18;;;4.53;;
30149;SDS011;16962;48.646;9.026;2022-09-30T17:35:58;8.82;;;4.55;;
30149;SDS011;16962;48.646;9.026;2022-09-30T17:38:51;10.85;;;4.70;;
30149;SDS011;16962;48.646;9.026;2022-09-30T17:41:39;6.72;;;4.15;;
30149;SDS011;16962;48.646;9.026;2022-09-30T17:44:45;13.27;;;4.40;;
30149;SDS011;16962;48.646;9.026;2022-09-30T17:47:33;7.78;;;4.57;;
30149;SDS011;16962;48.646;9.026;2022-09-30T17:50:26;11.23;;;4.70;;
30149;SDS011;16962;48.646;9.026;2022-09-30T17:53:14;6.70;;;4.78;;
30149;SDS011;16962;48.646;9.026;2022-09-30T17:56:15;10.65;;;4.65;;
30149;SDS011;16962;48.646;9.026;2022-09-30T17:59:08;13.68;;;8.15;;
30149;SDS011;16962;48.646;9.026;2022-09-30T18:01:55;12.93;;;7.38;;
30149;SDS011;16962;48.646;9.026;2022-09-30T18:04:46;19.15;;;12.55;;
30149;SDS011;16962;48.646;9.026;2022-09-30T18:07:33;25.85;;;14.35;;
30149;SDS011;16962;48.646;9.026;2022-09-30T18:10:20;26.67;;;15.15;;
30149;SDS011;16962;48.646;9.026;2022-09-30T18:13:08;13.98;;;9.32;;
30149;SDS011;16962;48.646;9.026;2022-09-30T18:15:57;22.80;;;10.50;;
30149;SDS011;16962;48.646;9.026;2022-09-30T18:18:50;14.07;;;9.27;;
30149;SDS011;16962;48.646;9.026;2022-09-30T18:21:40;15.55;;;9.50;;
30149;SDS011;16962;48.646;9.026;2022-09-30T18:24:30;18.67;;;11.10;;
30149;SDS011;16962;48.646;9.026;2022-09-30T18:27:36;27.20;;;13.82;;
30149;SDS011;16962;48.646;9.026;2022-09-30T18:30:26;16.85;;;10.07;;
30149;SDS011;16962;48.646;9.026;2022-09-30T18:33:15;18.92;;;11.55;;
30149;SDS011;16962;48.646;9.026;2022-09-30T18:36:07;20.20;;;12.25;;
30149;SDS011;16962;48.646;9.026;2022-09-30T18:38:54;16.55;;;11.20;;
30149;SDS011;16962;48.646;9.026;2022-09-30T18:41:45;26.98;;;12.70;;
30149;SDS011;16962;48.646;9.026;2022-09-30T18:44:34;23.42;;;12.35;;
30149;SDS011;16962;48.646;9.026;2022-09-30T18:47:23;22.08;;;14.05;;
30149;SDS011;16962;48.646;9.026;2022-09-30T18:50:11;21.73;;;13.18;;
30149;SDS011;16962;48.646;9.026;2022-09-30T18:52:59;20.13;;;12.07;;
30149;SDS011;16962;48.646;9.026;2022-09-30T18:55:54;14.25;;;9.50;;
30149;SDS011;16962;48.646;9.026;2022-09-30T18:58:48;25.20;;;10.23;;
30149;SDS011;16962;48.646;9.026;2022-09-30T19:01:36;20.05;;;10.35;;
30149;SDS011;16962;48.646;9.026;2022-09-30T19:04:26;16.23;;;10.75;;
30149;SDS011;16962;48.646;9.026;2022-09-30T19:07:17;15.25;;;10.35;;
30149;SDS011;16962;48.646;9.026;2022-09-30T19:12:55;15.23;;;9.82;;
30149;SDS011;16962;48.646;9.026;2022-09-30T19:15:42;15.32;;;10.25;;
30149;SDS011;16962;48.646;9.026;2022-09-30T19:18:31;14.95;;;10.10;;
30149;SDS011;16962;48.646;9.026;2022-09-30T19:21:20;14.30;;;10.73;;
30149;SDS011;16962;48.646;9.026;2022-09-30T19:24:09;15.52;;;10.50;;
30149;SDS011;16962;48.646;9.026;2022-09-30T19:26:57;16.08;;;10.52;;
30149;SDS011;16962;48.646;9.026;2022-09-30T19:29:44;14.63;;;10.45;;
30149;SDS011;16962;48.646;9.026;2022-09-30T19:32:32;18.42;;;12.82;;
30149;SDS011;16962;48.646;9.026;2022-09-30T19:35:21;26.55;;;14.95;;
30149;SDS011;16962;48.646;9.026;2022-09-30T19:38:24;23.67;;;12.55;;
30149;SDS011;16962;48.646;9.026;2022-09-30T19:41:23;20.95;;;12.32;;
30149;SDS011;16962;48.646;9.026;2022-09-30T19:44:11;24.50;;;14.70;;
30149;SDS011;16962;48.646;9.026;2022-09-30T19:47:04;21.52;;;13.25;;
30149;SDS011;16962;48.646;9.026;2022-09-30T19:49:52;22.33;;;14.98;;
30149;SDS011;16962;48.646;9.026;2022-09-30T19:52:40;20.80;;;13.13;;
30149;SDS011;16962;48.646;9.026;2022-09-30T19:55:42;19.80;;;13.23;;
30149;SDS011;16962;48.646;9.026;2022-09-30T19:58:36;21.70;;;14.57;;
30149;SDS011;16962;48.646;9.026;2022-09-30T20:01:33;23.38;;;12.93;;